Amo, Colorado
Current Conditions -  °F | °C
As of 11:34 AM on Saturday 20 Dec 2014 (Local Time) from KFLY Reporting Station
Clear Clear  
Wind Chill: 47°   Ceiling: Unl
Heat Index: 47°   Visibility: 10mi
Dew Point: 11°   Wind: 0mph
Humidity: 23%   Direction: NA
Pressure: 30.01"   Gusts: NA
Location:  39.0051°N, 104.503°W
Report Text: KFLY 201834Z AUTO 00000KT 10SM CLR 09/M12 A3001 RMK AO2 T00851118
Loading
Personal Weather Stations






























Interactive Weather Map New forecast layout! Learn more

10-Day Weather Forecast

Advertisements
Track Severe Weather on mobile